Time;durP1;ratioP1;P1;durP2;ratioP2;P2;SDS_P1;SDS_P2;PMS_P1;PMS_P2;Temp;Humidity;BMP_temperature;BMP_pressure;BME280_temperature;BME280_humidity;BME280_pressure;Samples;Min_cycle;Max_cycle;Signal;HPM_P1;HPM_P2
2023/10/21 00:00:36;;;;;;;;;;;;;;;9.90;100.00;98384.13;5039473;28;19917;-74
2023/10/21 00:03:01;;;;;;;;;;;;;;;9.89;100.00;98387.66;5019458;28;19917;-74
2023/10/21 00:05:27;;;;;;;;;;;;;;;9.89;100.00;98390.25;5011138;28;19917;-74
2023/10/21 00:07:52;;;;;;;;;;;;;;;9.90;100.00;98391.09;5018762;28;20004;-74
2023/10/21 00:10:17;;;;;;;;;;;;;;;9.90;100.00;98391.94;5015916;28;19948;-74
2023/10/21 00:12:44;;;;;;;;;;;;;;;9.91;100.00;98385.81;5031226;28;19917;-74
2023/10/21 00:15:09;;;;;;;;;;;;;;;9.92;100.00;98392.69;5007642;28;19921;-73
2023/10/21 00:17:34;;;;;;;;;;;;;;;9.95;100.00;98400.31;5023427;28;19936;-74
2023/10/21 00:20:00;;;;;;;;;;;;;;;9.97;100.00;98400.19;5046231;28;19917;-74
2023/10/21 00:22:25;;;;;;;;;;;;;;;9.99;100.00;98404.41;5025560;28;19913;-74
2023/10/21 00:24:50;;;;;;;;;;;;;;;10.01;100.00;98412.97;5047208;28;19944;-74
2023/10/21 00:27:16;;;;;;;;;;;;;;;10.04;100.00;98410.19;5028095;28;20013;-74
2023/10/21 00:29:41;;;;;;;;;;;;;;;10.05;100.00;98417.03;5029030;28;19956;-74
2023/10/21 00:32:06;;;;;;;;;;;;;;;10.09;100.00;98420.31;5015608;28;19924;-74
2023/10/21 00:34:32;;;;;;;;;;;;;;;10.14;100.00;98425.25;5055493;28;19924;-74
2023/10/21 00:36:57;;;;;;;;;;;;;;;10.16;100.00;98433.78;5032522;28;19917;-74
2023/10/21 00:39:22;;;;;;;;;;;;;;;10.16;100.00;98428.56;5022316;28;19917;-74
2023/10/21 00:41:47;;;;;;;;;;;;;;;10.15;100.00;98434.72;5036592;28;19963;-74
2023/10/21 00:44:13;;;;;;;;;;;;;;;10.12;100.00;98432.31;5013024;28;19918;-74
2023/10/21 00:46:39;;;;;;;;;;;;;;;10.08;100.00;98439.47;5042219;28;20331;-74
2023/10/21 00:49:04;;;;;;;;;;;;;;;10.08;100.00;98447.28;5022090;28;19917;-74
2023/10/21 00:51:29;;;;;;;;;;;;;;;10.04;100.00;98451.81;5025025;28;19935;-74
2023/10/21 00:53:56;;;;;;;;;;;;;;;10.02;100.00;98453.66;5024940;28;19917;-74
2023/10/21 00:56:21;;;;;;;;;;;;;;;10.01;100.00;98454.59;5015694;28;19960;-74
2023/10/21 00:58:46;;;;;;;;;;;;;;;10.01;100.00;98459.81;5027955;28;19956;-74
2023/10/21 01:01:13;;;;;;;;;;;;;;;9.99;100.00;98455.63;5023683;28;20419;-74
2023/10/21 01:03:38;;;;;;;;;;;;;;;10.00;100.00;98457.28;5022605;28;20283;-74
2023/10/21 01:06:04;;;;;;;;;;;;;;;10.00;100.00;98470.31;5022025;28;19924;-74
2023/10/21 01:08:29;;;;;;;;;;;;;;;9.99;100.00;98473.84;5039119;28;19913;-74
2023/10/21 01:10:55;;;;;;;;;;;;;;;9.99;100.00;98473.84;5051916;28;19924;-74
2023/10/21 01:13:20;;;;;;;;;;;;;;;9.99;100.00;98474.69;5048180;28;20313;-74
2023/10/21 01:15:45;;;;;;;;;;;;;;;10.01;100.00;98478.03;5027994;28;20375;-74
2023/10/21 01:18:11;;;;;;;;;;;;;;;10.04;100.00;98479.63;5029068;28;19921;-74
2023/10/21 01:20:41;;;;;;;;;;;;;;;10.07;100.00;98475.06;5022259;28;19924;-74
2023/10/21 01:23:06;;;;;;;;;;;;;;;10.12;100.00;98486.97;5013883;28;20012;-74
2023/10/21 01:25:32;;;;;;;;;;;;;;;10.14;100.00;98482.53;5040001;28;20053;-74
2023/10/21 01:27:58;;;;;;;;;;;;;;;10.17;100.00;98490.13;5028722;28;20481;-75
2023/10/21 01:30:23;;;;;;;;;;;;;;;10.18;100.00;98492.66;5037361;28;19952;-74
2023/10/21 01:32:48;;;;;;;;;;;;;;;10.19;100.00;98502.13;5008060;28;19918;-74
2023/10/21 01:35:15;;;;;;;;;;;;;;;10.20;100.00;98495.16;5014481;28;19917;-74
2023/10/21 01:37:40;;;;;;;;;;;;;;;10.22;100.00;98506.34;5022424;28;20015;-74
2023/10/21 01:40:06;;;;;;;;;;;;;;;10.24;100.00;98507.09;5039140;28;19996;-74
2023/10/21 01:42:31;;;;;;;;;;;;;;;10.26;100.00;98508.69;5028769;28;20008;-74
2023/10/21 01:44:57;;;;;;;;;;;;;;;10.29;100.00;98507.66;5041548;28;20434;-74
2023/10/21 01:47:22;;;;;;;;;;;;;;;10.31;100.00;98509.25;5021652;28;19917;-74
2023/10/21 01:49:47;;;;;;;;;;;;;;;10.33;100.00;98503.94;5015946;28;20004;-74
2023/10/21 01:52:13;;;;;;;;;;;;;;;10.37;100.00;98507.22;5023186;28;19917;-74
2023/10/21 01:54:42;;;;;;;;;;;;;;;10.39;100.00;98508.78;5030099;28;19962;-74
2023/10/21 01:57:08;;;;;;;;;;;;;;;10.40;100.00;98507.88;5022698;28;20008;-74
2023/10/21 01:59:36;;;;;;;;;;;;;;;10.41;100.00;98511.31;5025144;28;20049;-74
2023/10/21 02:02:01;;;;;;;;;;;;;;;10.41;100.00;98517.38;5010769;28;19921;-74
2023/10/21 02:04:27;;;;;;;;;;;;;;;10.39;100.00;98524.41;5027734;28;20473;-75
2023/10/21 02:06:52;;;;;;;;;;;;;;;10.36;100.00;98535.00;5035196;28;19925;-74
2023/10/21 02:09:17;;;;;;;;;;;;;;;10.35;100.00;98532.53;5024007;28;19924;-74
2023/10/21 02:11:43;;;;;;;;;;;;;;;10.34;100.00;98534.28;5052378;28;20011;-74
2023/10/21 02:14:08;;;;;;;;;;;;;;;10.33;100.00;98532.59;5017626;28;19928;-74
2023/10/21 02:16:33;;;;;;;;;;;;;;;10.34;100.00;98538.66;5014011;28;19921;-74
2023/10/21 02:18:59;;;;;;;;;;;;;;;10.33;100.00;98540.41;5007005;28;19931;-74
2023/10/21 02:21:25;;;;;;;;;;;;;;;10.32;100.00;98547.38;5020733;28;19917;-74
2023/10/21 02:23:50;;;;;;;;;;;;;;;10.33;100.00;98556.03;5030833;28;19921;-74
2023/10/21 02:26:16;;;;;;;;;;;;;;;10.35;100.00;98561.16;5086007;28;19940;-74
2023/10/21 02:28:41;;;;;;;;;;;;;;;10.36;100.00;98561.06;5024404;28;19917;-74
2023/10/21 02:31:06;;;;;;;;;;;;;;;10.34;100.00;98567.31;5039253;28;19917;-74
2023/10/21 02:33:31;;;;;;;;;;;;;;;10.31;100.00;98565.72;5018657;28;19917;-74
2023/10/21 02:35:57;;;;;;;;;;;;;;;10.31;100.00;98563.94;5014354;28;20018;-74
2023/10/21 02:38:22;;;;;;;;;;;;;;;10.31;100.00;98555.31;5021416;28;20012;-74
2023/10/21 02:40:48;;;;;;;;;;;;;;;10.29;100.00;98570.16;5019370;28;19931;-74
2023/10/21 02:43:13;;;;;;;;;;;;;;;10.28;100.00;98563.28;5024288;28;19917;-74
2023/10/21 02:45:39;;;;;;;;;;;;;;;10.26;100.00;98565.13;5042101;28;19955;-74
2023/10/21 02:48:04;;;;;;;;;;;;;;;10.24;100.00;98573.03;5025764;28;19913;-74
2023/10/21 02:50:29;;;;;;;;;;;;;;;10.21;100.00;98573.19;5042585;28;20440;-74
2023/10/21 02:52:54;;;;;;;;;;;;;;;10.19;100.00;98579.41;5021958;28;20266;-74
2023/10/21 02:55:19;;;;;;;;;;;;;;;10.18;100.00;98586.38;5041405;28;19931;-74
2023/10/21 02:57:45;;;;;;;;;;;;;;;10.15;100.00;98583.97;5028748;28;19959;-74
2023/10/21 03:00:15;;;;;;;;;;;;;;;10.12;100.00;98586.75;5043794;28;19933;-74
2023/10/21 03:02:40;;;;;;;;;;;;;;;10.09;100.00;98599.94;5007597;28;19925;-74
2023/10/21 03:05:05;;;;;;;;;;;;;;;10.08;100.00;98603.47;5020580;28;20287;-74
2023/10/21 03:07:31;;;;;;;;;;;;;;;10.06;100.00;98607.91;5028819;28;19917;-74
2023/10/21 03:09:56;;;;;;;;;;;;;;;10.05;100.00;98608.84;5045525;28;19915;-74
2023/10/21 03:12:21;;;;;;;;;;;;;;;10.03;100.00;98610.69;5030439;28;20001;-74
2023/10/21 03:14:46;;;;;;;;;;;;;;;10.01;100.00;98607.34;5004640;28;20288;-74
2023/10/21 03:17:13;;;;;;;;;;;;;;;9.97;100.00;98611.91;5010726;28;20383;-74
2023/10/21 03:19:38;;;;;;;;;;;;;;;9.94;100.00;98612.06;5011545;28;19917;-74
2023/10/21 03:22:03;;;;;;;;;;;;;;;9.93;100.00;98612.97;5020479;28;19918;-74
2023/10/21 03:24:29;;;;;;;;;;;;;;;9.92;100.00;98616.50;5025671;28;19917;-74
2023/10/21 03:26:54;;;;;;;;;;;;;;;9.89;100.00;98619.28;5022836;28;19978;-74
2023/10/21 03:29:19;;;;;;;;;;;;;;;9.89;100.00;98624.50;5019001;28;19963;-74
2023/10/21 03:31:44;;;;;;;;;;;;;;;9.87;100.00;98628.94;5021831;28;19917;-74
2023/10/21 03:34:10;;;;;;;;;;;;;;;9.86;100.00;98637.66;5027257;28;19928;-74
2023/10/21 03:36:35;;;;;;;;;;;;;;;9.85;100.00;98631.63;5024352;28;19935;-73
2023/10/21 03:39:00;;;;;;;;;;;;;;;9.85;100.00;98631.63;5027422;28;19920;-74
2023/10/21 03:41:25;;;;;;;;;;;;;;;9.91;100.00;98640.00;5035022;28;19968;-74
2023/10/21 03:43:50;;;;;;;;;;;;;;;9.96;100.00;98641.44;5024007;28;19924;-74
2023/10/21 03:46:17;;;;;;;;;;;;;;;9.94;100.00;98643.31;5044591;28;20457;-74
2023/10/21 03:48:42;;;;;;;;;;;;;;;9.91;100.00;98651.28;5022635;28;20390;-74
2023/10/21 03:51:10;;;;;;;;;;;;;;;9.90;100.00;98656.56;5042234;28;19917;-74
2023/10/21 03:53:35;;;;;;;;;;;;;;;9.88;100.00;98666.22;5019337;28;19924;-74
2023/10/21 03:56:01;;;;;;;;;;;;;;;9.86;100.00;98666.28;5017449;28;19921;-74
2023/10/21 03:58:27;;;;;;;;;;;;;;;9.88;100.00;98668.84;5025528;28;19921;-74
2023/10/21 04:00:54;;;;;;;;;;;;;;;9.91;100.00;98664.28;5042765;28;20399;-74
2023/10/21 04:03:19;;;;;;;;;;;;;;;9.97;100.00;98668.28;5022532;28;19917;-74
2023/10/21 04:05:45;;;;;;;;;;;;;;;10.03;100.00;98678.38;5044548;28;20437;-74
2023/10/21 04:08:11;;;;;;;;;;;;;;;10.02;100.00;98677.53;5029496;28;20330;-74
2023/10/21 04:10:36;;;;;;;;;;;;;;;10.05;100.00;98674.78;5054101;28;19917;-73
2023/10/21 04:13:02;;;;;;;;;;;;;;;10.08;100.00;98690.22;5059744;28;20385;-74
2023/10/21 04:15:27;;;;;;;;;;;;;;;10.18;100.00;98690.53;5049880;28;19966;-74
2023/10/21 04:17:53;;;;;;;;;;;;;;;10.22;100.00;98699.03;5052922;28;19969;-74
2023/10/21 04:20:18;;;;;;;;;;;;;;;10.26;100.00;98700.56;5049082;28;19922;-74
2023/10/21 04:22:43;;;;;;;;;;;;;;;10.30;100.00;98700.31;5037980;28;19923;-74
2023/10/21 04:25:10;;;;;;;;;;;;;;;10.31;100.00;98701.97;5056213;28;19972;-74
2023/10/21 04:27:35;;;;;;;;;;;;;;;10.30;100.00;98697.72;5052234;28;19911;-74
2023/10/21 04:30:00;;;;;;;;;;;;;;;10.34;100.00;98707.97;5019446;28;19928;-73
2023/10/21 04:32:25;;;;;;;;;;;;;;;10.36;100.00;98712.13;5014681;28;19921;-74
2023/10/21 04:34:51;;;;;;;;;;;;;;;10.36;100.00;98717.34;5003806;28;19921;-74
2023/10/21 04:37:16;;;;;;;;;;;;;;;10.32;100.00;98729.69;5009801;28;19917;-74
2023/10/21 04:39:41;;;;;;;;;;;;;;;10.29;100.00;98727.25;5021247;28;20280;-74
2023/10/21 04:42:06;;;;;;;;;;;;;;;10.25;100.00;98723.13;5034884;28;19917;-74
2023/10/21 04:44:32;;;;;;;;;;;;;;;10.22;100.00;98730.28;5011596;28;20369;-74
2023/10/21 04:46:57;;;;;;;;;;;;;;;10.22;100.00;98738.09;5019097;28;19957;-74
2023/10/21 04:49:22;;;;;;;;;;;;;;;10.22;100.00;98738.91;5030762;28;19952;-74
2023/10/21 04:51:47;;;;;;;;;;;;;;;10.21;100.00;98739.00;5043252;28;20284;-74
2023/10/21 04:54:12;;;;;;;;;;;;;;;10.19;100.00;98743.47;5019651;28;19917;-74
2023/10/21 04:56:38;;;;;;;;;;;;;;;10.19;100.00;98759.91;5046418;28;19923;-74
2023/10/21 04:59:04;;;;;;;;;;;;;;;10.18;100.00;98754.81;5024304;28;19975;-74
2023/10/21 05:01:29;;;;;;;;;;;;;;;10.16;100.00;98752.28;5026172;28;19921;-74
2023/10/21 05:03:54;;;;;;;;;;;;;;;10.11;100.00;98759.50;5007766;28;19940;-74
2023/10/21 05:06:19;;;;;;;;;;;;;;;10.07;100.00;98761.44;5028579;28;19952;-74
2023/10/21 05:08:44;;;;;;;;;;;;;;;10.05;100.00;98765.03;5028224;28;19918;-74
2023/10/21 05:11:10;;;;;;;;;;;;;;;10.02;100.00;98765.22;5029942;28;20400;-74
2023/10/21 05:13:35;;;;;;;;;;;;;;;9.97;100.00;98765.47;5037171;28;20377;-74
2023/10/21 05:16:00;;;;;;;;;;;;;;;9.95;100.00;98766.47;5020312;28;20379;-74
2023/10/21 05:18:25;;;;;;;;;;;;;;;9.94;100.00;98783.00;5018812;28;19917;-74
2023/10/21 05:20:51;;;;;;;;;;;;;;;9.92;100.00;98774.44;5041658;28;19919;-74
2023/10/21 05:23:16;;;;;;;;;;;;;;;9.93;100.00;98778.72;5020440;28;19917;-74
2023/10/21 05:25:42;;;;;;;;;;;;;;;9.94;100.00;98767.38;5042167;28;19923;-74
2023/10/21 05:28:07;;;;;;;;;;;;;;;9.96;100.00;98784.59;5021042;28;19917;-74
2023/10/21 05:30:33;;;;;;;;;;;;;;;9.99;100.00;98781.00;5026621;28;19963;-74
2023/10/21 05:32:58;;;;;;;;;;;;;;;10.04;100.00;98786.81;5029717;28;19917;-74
2023/10/21 05:35:23;;;;;;;;;;;;;;;10.08;100.00;98791.75;5028438;28;20262;-74
2023/10/21 05:37:48;;;;;;;;;;;;;;;10.15;100.00;98791.44;5034784;28;19943;-74
2023/10/21 05:40:14;;;;;;;;;;;;;;;10.22;100.00;98797.97;5016914;28;19960;-74
2023/10/21 05:42:39;;;;;;;;;;;;;;;10.28;100.00;98803.72;5027196;28;19913;-74
2023/10/21 05:45:04;;;;;;;;;;;;;;;10.37;100.00;98805.00;5026798;28;20005;-74
2023/10/21 05:47:29;;;;;;;;;;;;;;;10.45;100.00;98808.00;5045683;28;19917;-74
2023/10/21 05:49:55;;;;;;;;;;;;;;;10.54;100.00;98820.53;5023563;28;19978;-74
2023/10/21 05:52:20;;;;;;;;;;;;;;;10.59;100.00;98816.81;5044968;28;19917;-74
2023/10/21 05:54:45;;;;;;;;;;;;;;;10.64;100.00;98830.44;5028842;28;19971;-74
2023/10/21 05:57:11;;;;;;;;;;;;;;;10.68;100.00;98822.34;5044546;28;19921;-74
2023/10/21 05:59:36;;;;;;;;;;;;;;;10.74;100.00;98826.38;5016331;28;20361;-74
2023/10/21 06:02:01;;;;;;;;;;;;;;;10.80;100.00;98833.03;4995208;28;20380;-74
2023/10/21 06:04:27;;;;;;;;;;;;;;;10.84;100.00;98837.97;5003553;28;19948;-74
2023/10/21 06:06:54;;;;;;;;;;;;;;;10.87;100.00;98842.19;5027912;28;19986;-74
2023/10/21 06:09:20;;;;;;;;;;;;;;;10.91;100.00;98847.13;5028605;28;19959;-74
2023/10/21 06:11:45;;;;;;;;;;;;;;;10.93;100.00;98852.28;5047401;28;19916;-74
2023/10/21 06:14:10;;;;;;;;;;;;;;;10.94;100.00;98860.00;5030382;28;19981;-74
2023/10/21 06:16:35;;;;;;;;;;;;;;;10.97;100.00;98864.19;5041928;28;20298;-74
2023/10/21 06:19:01;;;;;;;;;;;;;;;11.00;100.00;98874.44;5016763;28;19936;-74
2023/10/21 06:21:26;;;;;;;;;;;;;;;11.02;100.00;98881.28;5035103;28;19917;-74
2023/10/21 06:23:51;;;;;;;;;;;;;;;11.06;100.00;98879.31;5024148;28;20003;-74
2023/10/21 06:26:16;;;;;;;;;;;;;;;11.11;100.00;98882.50;5037563;28;20369;-74
2023/10/21 06:28:41;;;;;;;;;;;;;;;11.13;100.00;98896.31;5022802;28;19918;-74
2023/10/21 06:31:07;;;;;;;;;;;;;;;11.18;100.00;98898.63;5033614;28;20339;-74
2023/10/21 06:33:32;;;;;;;;;;;;;;;11.20;100.00;98896.78;5019347;28;19975;-74
2023/10/21 06:35:58;;;;;;;;;;;;;;;11.25;100.00;98907.81;5042704;28;19916;-74
2023/10/21 06:38:23;;;;;;;;;;;;;;;11.30;100.00;98911.00;5023518;28;19913;-74
2023/10/21 06:40:48;;;;;;;;;;;;;;;11.35;100.00;98913.34;5031938;28;20001;-74
2023/10/21 06:43:13;;;;;;;;;;;;;;;11.39;100.00;98914.84;5035229;28;19918;-74
2023/10/21 06:45:38;;;;;;;;;;;;;;;11.42;100.00;98920.72;5025386;28;20322;-74
2023/10/21 06:48:04;;;;;;;;;;;;;;;11.45;100.00;98928.38;5032380;28;19917;-74
2023/10/21 06:50:29;;;;;;;;;;;;;;;11.49;100.00;98934.25;5023896;28;19917;-74
2023/10/21 06:52:54;;;;;;;;;;;;;;;11.53;100.00;98930.53;5044106;28;19913;-74
2023/10/21 06:55:20;;;;;;;;;;;;;;;11.55;100.00;98938.28;5023793;28;19924;-74
2023/10/21 06:57:45;;;;;;;;;;;;;;;11.56;100.00;98946.03;5043446;28;20280;-74
2023/10/21 07:00:12;;;;;;;;;;;;;;;11.58;100.00;98949.41;5020854;28;19921;-74
2023/10/21 07:02:37;;;;;;;;;;;;;;;11.61;100.00;98951.84;5014934;28;19916;-74
2023/10/21 07:05:02;;;;;;;;;;;;;;;11.65;100.00;98961.16;5012514;28;20265;-74
2023/10/21 07:07:27;;;;;;;;;;;;;;;11.71;100.00;98959.97;5014832;28;19930;-74
2023/10/21 07:09:54;;;;;;;;;;;;;;;11.74;100.00;98970.22;5045225;28;20369;-75
2023/10/21 07:12:19;;;;;;;;;;;;;;;11.75;100.00;98984.97;5025072;28;20012;-75
2023/10/21 07:14:44;;;;;;;;;;;;;;;11.75;100.00;98984.97;5029457;28;19917;-75
2023/10/21 07:17:09;;;;;;;;;;;;;;;11.73;100.00;98994.63;5043599;28;19917;-75
2023/10/21 07:19:35;;;;;;;;;;;;;;;11.73;100.00;99005.09;5049508;28;20257;-75
2023/10/21 07:22:00;;;;;;;;;;;;;;;11.73;100.00;99024.19;5035813;28;19917;-75
2023/10/21 07:24:26;;;;;;;;;;;;;;;11.75;100.00;99029.34;5042729;28;20000;-75
2023/10/21 07:26:51;;;;;;;;;;;;;;;11.72;100.00;99032.97;5037563;28;20280;-75
2023/10/21 07:29:16;;;;;;;;;;;;;;;11.63;100.00;99030.88;5022197;28;20368;-75
2023/10/21 07:31:43;;;;;;;;;;;;;;;11.57;100.00;99051.25;5007665;28;19925;-75
2023/10/21 07:34:08;;;;;;;;;;;;;;;11.56;100.00;99049.56;5023642;28;20269;-75
2023/10/21 07:36:34;;;;;;;;;;;;;;;11.54;100.00;99067.91;5037026;28;19921;-75
2023/10/21 07:38:59;;;;;;;;;;;;;;;11.52;100.00;99080.22;5022515;28;19960;-75
2023/10/21 07:41:24;;;;;;;;;;;;;;;11.54;100.00;99088.78;5036438;28;19963;-74
2023/10/21 07:43:50;;;;;;;;;;;;;;;11.57;100.00;99086.00;5022328;28;20004;-75
2023/10/21 07:46:15;;;;;;;;;;;;;;;11.56;100.00;99101.78;5042374;28;19915;-75
2023/10/21 07:48:40;;;;;;;;;;;;;;;11.49;100.00;99107.31;5023080;28;19920;-75
2023/10/21 07:51:05;;;;;;;;;;;;;;;11.41;100.00;99104.31;5017911;28;19941;-74
2023/10/21 07:53:31;;;;;;;;;;;;;;;11.35;100.00;99119.44;5025361;28;20387;-74
2023/10/21 07:55:56;;;;;;;;;;;;;;;11.28;100.00;99112.84;5024668;28;20376;-75
2023/10/21 07:58:22;;;;;;;;;;;;;;;11.33;100.00;99124.75;5016308;28;19995;-74
2023/10/21 08:00:48;;;;;;;;;;;;;;;11.39;100.00;99126.19;5029863;28;19944;-74
2023/10/21 08:03:14;;;;;;;;;;;;;;;11.41;100.00;99135.63;5016229;28;19917;-74
2023/10/21 08:05:39;;;;;;;;;;;;;;;11.51;100.00;99135.09;5014664;28;19917;-74
2023/10/21 08:08:04;;;;;;;;;;;;;;;11.55;100.00;99147.06;5042947;28;19917;-74
2023/10/21 08:10:30;;;;;;;;;;;;;;;11.66;100.00;99144.72;5027386;28;19924;-74
2023/10/21 08:12:55;;;;;;;;;;;;;;;11.76;100.00;99156.31;5042201;28;19917;-74
2023/10/21 08:15:20;;;;;;;;;;;;;;;11.79;100.00;99145.72;5019731;28;19920;-74
2023/10/21 08:17:45;;;;;;;;;;;;;;;11.76;100.00;99145.88;5010923;28;19918;-74
2023/10/21 08:20:11;;;;;;;;;;;;;;;11.64;100.00;99151.75;5012498;28;19921;-74
2023/10/21 08:22:36;;;;;;;;;;;;;;;11.56;100.00;99159.19;5016375;28;19918;-74
2023/10/21 08:25:01;;;;;;;;;;;;;;;11.58;100.00;99170.41;5017947;28;19937;-74
2023/10/21 08:27:27;;;;;;;;;;;;;;;11.58;100.00;99173.00;5036545;28;19924;-74
2023/10/21 08:29:55;;;;;;;;;;;;;;;11.57;100.00;99166.91;5014463;28;19921;-74
2023/10/21 08:32:20;;;;;;;;;;;;;;;11.57;100.00;99172.13;5023992;28;19925;-74
2023/10/21 08:34:46;;;;;;;;;;;;;;;11.59;100.00;99178.13;5008283;28;19918;-74
2023/10/21 08:37:11;;;;;;;;;;;;;;;11.62;100.00;99177.13;5018533;28;19921;-75
2023/10/21 08:39:37;;;;;;;;;;;;;;;11.60;100.00;99173.75;5011705;28;20021;-74
2023/10/21 08:42:05;;;;;;;;;;;;;;;11.57;100.00;99194.78;5037148;28;19924;-74
2023/10/21 08:44:30;;;;;;;;;;;;;;;11.54;100.00;99189.72;5013732;28;19922;-74
2023/10/21 08:46:57;;;;;;;;;;;;;;;11.57;100.00;99198.25;5013377;28;19918;-74
2023/10/21 08:49:23;;;;;;;;;;;;;;;11.69;100.00;99192.38;5014547;28;20387;-74
2023/10/21 08:51:49;;;;;;;;;;;;;;;11.71;100.00;99200.13;5038321;28;19917;-75
2023/10/21 08:54:16;;;;;;;;;;;;;;;11.65;100.00;99203.06;5016009;28;19925;-74
2023/10/21 08:56:41;;;;;;;;;;;;;;;11.67;100.00;99199.47;5021022;28;20012;-74
2023/10/21 08:59:07;;;;;;;;;;;;;;;11.64;100.00;99199.63;5008825;28;20028;-74
2023/10/21 09:01:35;;;;;;;;;;;;;;;11.56;100.00;99212.22;5026195;28;20453;-74
2023/10/21 09:04:00;;;;;;;;;;;;;;;11.44;100.00;99218.09;5022528;28;19925;-75
2023/10/21 09:06:25;;;;;;;;;;;;;;;11.42;100.00;99219.94;5030004;28;19921;-74
2023/10/21 09:08:50;;;;;;;;;;;;;;;11.38;100.00;99221.88;5029760;28;19974;-74
2023/10/21 09:11:16;;;;;;;;;;;;;;;11.32;100.00;99227.41;5027496;28;19917;-74
2023/10/21 09:13:42;;;;;;;;;;;;;;;11.27;100.00;99232.03;5026901;28;20281;-74
2023/10/21 09:16:17;;;;;;;;;;;;;;;11.27;100.00;99242.44;5014194;28;19927;-74
2023/10/21 09:18:54;;;;;;;;;;;;;;;11.28;100.00;99245.91;5007813;28;19928;-74
2023/10/21 09:21:29;;;;;;;;;;;;;;;11.40;100.00;99245.28;5032920;28;19970;-74
2023/10/21 09:23:54;;;;;;;;;;;;;;;11.44;100.00;99260.72;5005398;28;19971;-75
2023/10/21 09:26:19;;;;;;;;;;;;;;;11.43;100.00;99242.50;5016675;28;19956;-74
2023/10/21 09:28:44;;;;;;;;;;;;;;;11.46;100.00;99260.59;5020759;28;19917;-75
2023/10/21 09:31:09;;;;;;;;;;;;;;;11.45;100.00;99259.78;5035642;28;19924;-75
2023/10/21 09:33:53;;;;;;;;;;;;;;;11.54;100.00;99257.59;5021616;28;19913;-74
2023/10/21 09:36:18;;;;;;;;;;;;;;;11.63;100.00;99251.88;5019437;28;20008;-74
2023/10/21 09:38:43;;;;;;;;;;;;;;;11.67;100.00;99256.00;5023623;28;20459;-74
2023/10/21 09:41:08;;;;;;;;;;;;;;;11.63;100.00;99264.94;5043677;28;19923;-74
2023/10/21 09:43:36;;;;;;;;;;;;;;;11.62;100.00;99258.03;5023784;28;20430;-75
2023/10/21 09:46:05;;;;;;;;;;;;;;;11.64;100.00;99271.84;5015873;28;19943;-75
2023/10/21 09:48:31;;;;;;;;;;;;;;;11.71;100.00;99274.06;5016679;28;19963;-74
2023/10/21 09:50:57;;;;;;;;;;;;;;;11.81;100.00;99263.13;5019283;28;20003;-74
2023/10/21 09:53:33;;;;;;;;;;;;;;;11.90;100.00;99263.50;5032807;28;19917;-74
2023/10/21 09:55:59;;;;;;;;;;;;;;;12.08;100.00;99263.44;5018793;28;19917;-74
2023/10/21 09:58:27;;;;;;;;;;;;;;;12.18;100.00;99269.84;5027233;28;19963;-74
2023/10/21 10:00:52;;;;;;;;;;;;;;;12.29;100.00;99264.84;5047222;28;19969;-74
2023/10/21 10:03:19;;;;;;;;;;;;;;;12.47;100.00;99267.38;5031235;28;19921;-74
2023/10/21 10:05:46;;;;;;;;;;;;;;;12.49;100.00;99270.72;5047083;28;19925;-74
2023/10/21 10:08:11;;;;;;;;;;;;;;;12.35;100.00;99280.19;5031942;28;19940;-74
2023/10/21 10:10:38;;;;;;;;;;;;;;;12.37;100.00;99272.28;5048565;28;19963;-74
2023/10/21 10:13:09;;;;;;;;;;;;;;;12.37;100.00;99277.50;5032948;28;19927;-74
2023/10/21 10:15:34;;;;;;;;;;;;;;;12.30;100.00;99277.00;5027711;28;19928;-74
2023/10/21 10:18:03;;;;;;;;;;;;;;;12.36;100.00;99270.56;5034428;28;20310;-74
2023/10/21 10:20:28;;;;;;;;;;;;;;;12.54;100.00;99273.94;5057191;28;19913;-75
2023/10/21 10:22:58;;;;;;;;;;;;;;;12.64;100.00;99281.16;5029374;28;19913;-74
2023/10/21 10:25:33;;;;;;;;;;;;;;;12.63;100.00;99279.50;5026243;28;19935;-74
2023/10/21 10:28:07;;;;;;;;;;;;;;;12.42;100.00;99270.22;5018996;28;19990;-76
2023/10/21 10:30:33;;;;;;;;;;;;;;;12.34;100.00;99275.91;5028736;28;19924;-74
2023/10/21 10:33:06;;;;;;;;;;;;;;;12.31;100.00;99278.69;5035556;28;20612;-74
2023/10/21 10:35:32;;;;;;;;;;;;;;;12.35;100.00;99279.34;5025768;28;20003;-74
2023/10/21 10:38:01;;;;;;;;;;;;;;;12.35;100.00;99282.81;5039867;28;19931;-74
2023/10/21 10:40:33;;;;;;;;;;;;;;;12.31;100.00;99285.69;5023934;28;19970;-74
2023/10/21 10:42:59;;;;;;;;;;;;;;;12.21;100.00;99282.72;5040417;28;19917;-74
2023/10/21 10:45:24;;;;;;;;;;;;;;;12.18;100.00;99288.13;5022968;28;20383;-74
2023/10/21 10:48:00;;;;;;;;;;;;;;;12.29;100.00;99284.91;5041941;28;20356;-74
2023/10/21 10:50:26;;;;;;;;;;;;;;;12.44;100.00;99291.06;5016726;28;19932;-74
2023/10/21 10:52:53;;;;;;;;;;;;;;;12.53;100.00;99286.19;5042268;28;19986;-74
2023/10/21 10:55:19;;;;;;;;;;;;;;;12.68;100.00;99281.84;5019891;28;20296;-74
2023/10/21 10:57:44;;;;;;;;;;;;;;;12.71;100.00;99293.91;5042448;28;19923;-74
2023/10/21 11:00:10;;;;;;;;;;;;;;;12.99;100.00;99290.56;5026337;28;19921;-74
2023/10/21 11:02:44;;;;;;;;;;;;;;;13.38;100.00;99297.03;5034543;28;19917;-74
2023/10/21 11:05:14;;;;;;;;;;;;;;;13.61;100.00;99298.28;5017294;28;20007;-74
2023/10/21 11:07:40;;;;;;;;;;;;;;;13.55;100.00;99297.69;5044894;28;19917;-74
2023/10/21 11:10:07;;;;;;;;;;;;;;;13.52;100.00;99304.91;5028087;28;19970;-74
2023/10/21 11:12:32;;;;;;;;;;;;;;;13.44;100.00;99317.59;5044912;28;19925;-74
2023/10/21 11:15:00;;;;;;;;;;;;;;;13.34;100.00;99312.91;5029672;28;19917;-74
2023/10/21 11:17:25;;;;;;;;;;;;;;;13.29;100.00;99308.88;5041632;28;19917;-74
2023/10/21 11:19:51;;;;;;;;;;;;;;;13.44;100.00;99315.84;5014260;28;19965;-74
2023/10/21 11:22:20;;;;;;;;;;;;;;;13.69;100.00;99317.81;5037338;28;19962;-74
2023/10/21 11:24:45;;;;;;;;;;;;;;;13.91;100.00;99314.72;5020841;28;19970;-74
2023/10/21 11:27:11;;;;;;;;;;;;;;;13.87;100.00;99304.53;5037824;28;20330;-74
2023/10/21 11:29:37;;;;;;;;;;;;;;;13.66;100.00;99317.16;5020396;28;19926;-74
2023/10/21 11:32:02;;;;;;;;;;;;;;;13.62;100.00;99313.88;5038906;28;20425;-74
2023/10/21 11:34:28;;;;;;;;;;;;;;;13.71;100.00;99321.19;5023632;28;19943;-74
2023/10/21 11:36:55;;;;;;;;;;;;;;;13.78;100.00;99317.25;5037916;28;19917;-74
2023/10/21 11:39:21;;;;;;;;;;;;;;;13.94;100.00;99332.03;5025299;28;19917;-74
2023/10/21 11:41:50;;;;;;;;;;;;;;;13.97;100.00;99316.13;5038208;28;19924;-75
2023/10/21 11:44:16;;;;;;;;;;;;;;;13.96;100.00;99322.28;5025777;28;19917;-74
2023/10/21 11:46:41;;;;;;;;;;;;;;;13.92;100.00;99328.66;5039629;28;19921;-74
2023/10/21 11:49:13;;;;;;;;;;;;;;;14.00;100.00;99323.81;5025775;28;19913;-74
2023/10/21 11:51:43;;;;;;;;;;;;;;;13.79;100.00;99332.03;5040716;28;19932;-74
2023/10/21 11:54:09;;;;;;;;;;;;;;;13.68;100.00;99313.50;5026404;28;19921;-74
2023/10/21 12:00:48;;;;;;;;;;;;;;;14.00;100.00;99337.75;5027248;28;19939;-74
2023/10/21 12:05:46;;;;;;;;;;;;;;;14.49;100.00;99326.81;5014220;28;19940;-75
2023/10/21 12:11:10;;;;;;;;;;;;;;;15.10;100.00;99337.75;5011812;28;19932;-75
2023/10/21 12:13:52;;;;;;;;;;;;;;;14.68;100.00;99329.13;5012741;28;19925;-74
2023/10/21 12:27:32;;;;;;;;;;;;;;;13.72;100.00;99338.56;5016147;28;19924;-74
2023/10/21 12:40:35;;;;;;;;;;;;;;;14.23;100.00;99352.03;5012493;28;19939;-74
2023/10/21 12:45:47;;;;;;;;;;;;;;;14.33;100.00;99343.63;5024642;28;19924;-74
2023/10/21 12:48:14;;;;;;;;;;;;;;;14.29;100.00;99346.44;5019352;28;19919;-73
2023/10/21 12:50:40;;;;;;;;;;;;;;;14.11;100.00;99344.94;5001456;28;20369;-74
2023/10/21 12:53:06;;;;;;;;;;;;;;;13.94;100.00;99353.00;5010136;28;19917;-74
2023/10/21 12:55:32;;;;;;;;;;;;;;;13.96;100.00;99345.88;5011190;28;19921;-74
2023/10/21 12:57:57;;;;;;;;;;;;;;;13.84;100.00;99347.47;5063029;28;19915;-74
2023/10/21 13:00:22;;;;;;;;;;;;;;;13.76;100.00;99350.53;5026592;28;19937;-74
2023/10/21 13:02:48;;;;;;;;;;;;;;;13.74;100.00;99351.59;5009785;28;19924;-74
2023/10/21 13:05:13;;;;;;;;;;;;;;;13.72;100.00;99346.44;5017594;28;19925;-74